Iowa City, IA

2:13 PM CST en Enero 28, 2015 (GMT -0600)
NE - Iowa City | Change Station
CLOSE
Current Station
Estación meteorológica personal
Location: Iowa City, IA
Altura: 797 ft
Estaciones meteorológicas cercanas

Alt 797 ft 41.67 °N, 91.48 °W | Updated 3 seconds ago

Clear
Despejado
37.6 ° F
Sensación térmica 31 ° F
N
9.0
Viento Variable Viento desde Sur
Gusts 15.0 mph

Hoy
Alta -- | Baja -- ° F
--% Posibilidad de precipitaciones
Ayer
Alta -- | Baja -- ° F
Precip. -- pul
7:22 AM 5:16 PM
Gibosa creciente, 67% visible
Presión 29.99 pul
Visibilidad 9.0 Millas
Nubes Despejado
Vientos helados 31 ° F
Punto de rocío 31 ° F
Humedad 77%
Precipitaciones 0.00 pul
Espesor de la nieve No disponible.
UV 3 de una escala de 12
Polen .10 de una escala de 12
Calidad del aire No disponible.
Flu Activity No disponible.
METAR KIOW 281852Z AUTO 14018G23KT 9SM CLR 02/M02 A2996 RMK AO2 SLP153 T00221017

More Conditions Fewer Conditions

Presión 29.99 pul
Visibilidad 9.0 Millas
Nubes Despejado
Vientos helados 31 ° F
Punto de rocío 31 ° F
Humedad 77%
Precipitaciones 0.00 pul
Espesor de la nieve No disponible.
UV 3 de una escala de 12
Polen .10 de una escala de 12
Calidad del aire No disponible.
Flu Activity No disponible.
METAR KIOW 281852Z AUTO 14018G23KT 9SM CLR 02/M02 A2996 RMK AO2 SLP153 T00221017

More Conditions Fewer Conditions

10-Day Weather Forecast

Almanac

Astronomía

Jan. 28, 2015 Salida Puesta
Hora real
Crepúsculo civil
Crepúsculo náutico
Crepúsculo astronómico
Luna
Horas de luz
Horas de luz
Tomorrow will be .
, % of the Moon is Illuminated

Extremos de hoy

Máximos del estado Bajos del estado

Community

WunderPhotos

Upload Photos

1,791,251 ¡fotos cargadas!

WunderBlogs® & News

Nearby

Calidad del aire

  Calidad del aire Índice AQ Contaminante
Not available.

Grosos de nieve

Estación Profundido Altura

Actividad de terremotos

Ciudad Distance Mag. Tiempo y dato
Magnitud mínima muestra es 2,5.

Temperaturas de aguas costeras

Lugar Temperatura

Estaciones meteorológicas cercanas